Time,TemperatureF,DewpointF,PressureIn,WindDirection,WindDirectionDegrees,WindSpeedMPH,WindSpeedGustMPH,Humidity,HourlyPrecipIn,Conditions,Clouds,dailyrainin,SoftwareType,DateUTC
2013-05-24 00:11:00,71.6,50.3,29.93,SE,135,6.3,-999.0,47,-99.99,,,0.00,Acu-Link.com,2013-05-24 06:11:00,
2013-05-24 00:26:00,71.2,50.5,29.94,South,180,6.8,-999.0,48,-99.99,,,0.00,Acu-Link.com,2013-05-24 06:26:00,
2013-05-24 00:41:00,71.1,50.4,29.95,SE,135,13.5,-999.0,48,-99.99,,,0.00,Acu-Link.com,2013-05-24 06:41:00,
2013-05-24 00:57:00,71.1,50.4,29.95,SSE,157,7.3,-999.0,48,-99.99,,,0.00,Acu-Link.com,2013-05-24 06:57:00,
2013-05-24 01:12:00,70.7,50.6,29.95,ESE,112,10.9,-999.0,49,-99.99,,,0.00,Acu-Link.com,2013-05-24 07:12:00,
2013-05-24 01:27:00,70.5,50.4,29.96,SSE,157,7.3,-999.0,49,-99.99,,,0.00,Acu-Link.com,2013-05-24 07:27:00,
2013-05-24 01:42:00,70.3,50.2,29.96,East,90,9.9,-999.0,49,-99.99,,,0.00,Acu-Link.com,2013-05-24 07:42:00,
2013-05-24 01:57:00,70.2,50.1,29.96,ESE,112,7.8,-999.0,49,-99.99,,,0.00,Acu-Link.com,2013-05-24 07:57:00,
2013-05-24 02:13:00,69.8,49.8,29.96,SSE,157,7.3,-999.0,49,-99.99,,,0.00,Acu-Link.com,2013-05-24 08:13:00,
2013-05-24 02:28:00,69.6,49.6,29.95,SE,135,4.2,-999.0,49,-99.99,,,0.00,Acu-Link.com,2013-05-24 08:28:00,
2013-05-24 02:43:00,69.3,49.9,29.96,SSE,157,8.3,-999.0,50,-99.99,,,0.00,Acu-Link.com,2013-05-24 08:43:00,
2013-05-24 02:58:00,68.7,49.8,29.95,SE,135,7.3,-999.0,51,-99.99,,,0.00,Acu-Link.com,2013-05-24 08:58:00,
2013-05-24 03:13:00,68.4,50.1,29.95,East,90,4.2,-999.0,52,-99.99,,,0.00,Acu-Link.com,2013-05-24 09:13:00,
2013-05-24 03:29:00,68.4,50.6,29.96,South,180,3.7,-999.0,53,-99.99,,,0.00,Acu-Link.com,2013-05-24 09:29:00,
2013-05-24 03:44:00,67.6,50.4,29.96,SSE,157,5.8,-999.0,54,-99.99,,,0.00,Acu-Link.com,2013-05-24 09:44:00,
2013-05-24 03:59:00,67.3,50.1,29.97,SSE,157,3.7,-999.0,54,-99.99,,,0.00,Acu-Link.com,2013-05-24 09:59:00,
2013-05-24 04:14:00,67.3,50.6,29.96,SE,135,3.7,-999.0,55,-99.99,,,0.00,Acu-Link.com,2013-05-24 10:14:00,
2013-05-24 04:29:00,67.3,50.6,29.97,ESE,112,3.7,-999.0,55,-99.99,,,0.00,Acu-Link.com,2013-05-24 10:29:00,
2013-05-24 04:44:00,66.6,50.4,29.96,SE,135,4.7,-999.0,56,-99.99,,,0.00,Acu-Link.com,2013-05-24 10:44:00,
2013-05-24 04:59:00,65.8,50.1,29.97,SSE,157,2.7,-999.0,57,-99.99,,,0.00,Acu-Link.com,2013-05-24 10:59:00,
2013-05-24 05:14:00,67.1,50.4,29.98,SE,135,6.8,-999.0,55,-99.99,,,0.00,Acu-Link.com,2013-05-24 11:14:00,
2013-05-24 05:30:00,67.1,50.4,29.98,SSE,157,6.8,-999.0,55,-99.99,,,0.00,Acu-Link.com,2013-05-24 11:30:00,
2013-05-24 05:45:00,66.7,50.5,29.99,SSE,157,5.3,-999.0,56,-99.99,,,0.00,Acu-Link.com,2013-05-24 11:45:00,
2013-05-24 06:00:00,66.4,50.7,29.99,South,180,4.7,-999.0,57,-99.99,,,0.00,Acu-Link.com,2013-05-24 12:00:00,
2013-05-24 06:15:00,66.0,50.8,30.00,South,180,8.3,-999.0,58,-99.99,,,0.00,Acu-Link.com,2013-05-24 12:15:00,
2013-05-24 06:30:00,66.2,50.5,30.00,SSE,157,8.9,-999.0,57,-99.99,,,0.00,Acu-Link.com,2013-05-24 12:30:00,
2013-05-24 06:45:00,67.6,50.4,30.01,SE,135,5.3,-999.0,54,-99.99,,,0.00,Acu-Link.com,2013-05-24 12:45:00,
2013-05-24 07:00:00,69.4,51.0,30.01,ESE,112,4.7,-999.0,52,-99.99,,,0.00,Acu-Link.com,2013-05-24 13:00:00,
2013-05-24 07:15:00,70.2,51.2,30.01,SSW,202,5.3,-999.0,51,-99.99,,,0.00,Acu-Link.com,2013-05-24 13:15:00,
2013-05-24 07:30:00,71.4,51.2,30.02,South,180,8.3,-999.0,49,-99.99,,,0.00,Acu-Link.com,2013-05-24 13:30:00,
2013-05-24 07:46:00,73.0,51.0,30.02,South,180,8.9,-999.0,46,-99.99,,,0.00,Acu-Link.com,2013-05-24 13:46:00,
2013-05-24 08:01:00,74.1,50.8,30.02,East,90,4.7,-999.0,44,-99.99,,,0.00,Acu-Link.com,2013-05-24 14:01:00,
2013-05-24 08:16:00,74.8,50.8,30.03,ESE,112,9.9,-999.0,43,-99.99,,,0.00,Acu-Link.com,2013-05-24 14:16:00,
2013-05-24 08:31:00,76.6,50.5,30.04,ESE,112,8.9,-999.0,40,-99.99,,,0.00,Acu-Link.com,2013-05-24 14:31:00,
2013-05-24 08:46:00,77.2,51.0,30.04,South,180,7.3,-999.0,40,-99.99,,,0.00,Acu-Link.com,2013-05-24 14:46:00,
2013-05-24 09:01:00,78.4,52.1,30.04,SE,135,5.3,-999.0,40,-99.99,,,0.00,Acu-Link.com,2013-05-24 15:01:00,
2013-05-24 09:16:00,79.9,51.3,30.04,WSW,247,6.8,-999.0,37,-99.99,,,0.00,Acu-Link.com,2013-05-24 15:16:00,
2013-05-24 09:31:00,80.6,51.2,30.04,ESE,112,7.3,-999.0,36,-99.99,,,0.00,Acu-Link.com,2013-05-24 15:31:00,
2013-05-24 09:46:00,81.9,52.3,30.03,SSW,202,7.3,-999.0,36,-99.99,,,0.00,Acu-Link.com,2013-05-24 15:46:00,
2013-05-24 10:02:00,84.7,52.4,30.03,SE,135,6.8,-999.0,33,-99.99,,,0.00,Acu-Link.com,2013-05-24 16:02:00,
2013-05-24 10:17:00,84.7,50.7,30.03,SSE,157,6.3,-999.0,31,-99.99,,,0.00,Acu-Link.com,2013-05-24 16:17:00,
2013-05-24 10:32:00,85.3,49.4,30.03,SE,135,7.8,-999.0,29,-99.99,,,0.00,Acu-Link.com,2013-05-24 16:32:00,
2013-05-24 10:47:00,89.1,48.7,30.03,SSE,157,3.7,-999.0,25,-99.99,,,0.00,Acu-Link.com,2013-05-24 16:47:00,
2013-05-24 11:02:00,90.9,45.5,30.02,SSE,157,6.3,-999.0,21,-99.99,,,0.00,Acu-Link.com,2013-05-24 17:02:00,
2013-05-24 11:17:00,96.4,42.8,30.02,ESE,112,3.2,-999.0,16,-99.99,,,0.00,Acu-Link.com,2013-05-24 17:17:00,
2013-05-24 11:32:00,102.0,41.8,30.02,NW,315,3.2,-999.0,13,-99.99,,,0.00,Acu-Link.com,2013-05-24 17:32:00,
2013-05-24 11:47:00,102.0,37.5,30.01,NW,315,3.7,-999.0,11,-99.99,,,0.00,Acu-Link.com,2013-05-24 17:47:00,
2013-05-24 12:02:00,102.4,40.1,30.01,NNW,337,4.2,-999.0,12,-99.99,,,0.00,Acu-Link.com,2013-05-24 18:02:00,
2013-05-24 12:18:00,98.4,39.1,30.00,WNW,292,2.7,-999.0,13,-99.99,,,0.00,Acu-Link.com,2013-05-24 18:18:00,
2013-05-24 12:33:00,100.8,38.9,30.00,ESE,112,5.3,-999.0,12,-99.99,,,0.00,Acu-Link.com,2013-05-24 18:33:00,
2013-05-24 12:48:00,102.2,39.9,29.99,NE,45,1.7,-999.0,12,-99.99,,,0.00,Acu-Link.com,2013-05-24 18:48:00,
2013-05-24 13:03:00,102.6,40.2,29.98,WSW,247,2.7,-999.0,12,-99.99,,,0.00,Acu-Link.com,2013-05-24 19:03:00,
2013-05-24 13:18:00,103.1,38.4,29.97,SSE,157,1.7,-999.0,11,-99.99,,,0.00,Acu-Link.com,2013-05-24 19:18:00,
2013-05-24 13:33:00,101.7,39.5,29.96,ESE,112,6.8,-999.0,12,-99.99,,,0.00,Acu-Link.com,2013-05-24 19:33:00,
2013-05-24 13:49:00,99.0,41.4,29.96,ESE,112,6.8,-999.0,14,-99.99,,,0.00,Acu-Link.com,2013-05-24 19:49:00,
2013-05-24 14:04:00,100.4,40.6,29.95,ENE,67,6.8,-999.0,13,-99.99,,,0.00,Acu-Link.com,2013-05-24 20:04:00,
2013-05-24 14:19:00,98.6,41.1,29.94,SSE,157,2.2,-999.0,14,-99.99,,,0.00,Acu-Link.com,2013-05-24 20:19:00,
2013-05-24 14:34:00,97.7,42.2,29.93,West,270,3.7,-999.0,15,-99.99,,,0.00,Acu-Link.com,2013-05-24 20:34:00,
2013-05-24 14:49:00,100.2,40.4,29.92,SSE,157,4.7,-999.0,13,-99.99,,,0.00,Acu-Link.com,2013-05-24 20:49:00,
2013-05-24 15:04:00,96.4,39.4,29.91,South,180,2.7,-999.0,14,-99.99,,,0.00,Acu-Link.com,2013-05-24 21:04:00,
2013-05-24 15:19:00,100.0,40.3,29.91,ENE,67,2.2,-999.0,13,-99.99,,,0.00,Acu-Link.com,2013-05-24 21:19:00,
2013-05-24 15:34:00,102.6,40.2,29.90,NE,45,3.2,-999.0,12,-99.99,,,0.00,Acu-Link.com,2013-05-24 21:34:00,
2013-05-24 15:49:00,100.2,40.4,29.89,East,90,0.0,-999.0,13,-99.99,,,0.00,Acu-Link.com,2013-05-24 21:49:00,
2013-05-24 16:05:00,97.3,40.1,29.88,SSE,157,7.3,-999.0,14,-99.99,,,0.00,Acu-Link.com,2013-05-24 22:05:00,
2013-05-24 16:20:00,98.1,40.7,29.88,SE,135,2.2,-999.0,14,-99.99,,,0.00,Acu-Link.com,2013-05-24 22:20:00,
2013-05-24 16:35:00,100.4,40.6,29.87,SSE,157,3.2,-999.0,13,-99.99,,,0.00,Acu-Link.com,2013-05-24 22:35:00,
2013-05-24 16:50:00,99.3,43.5,29.87,NE,45,1.7,-999.0,15,-99.99,,,0.00,Acu-Link.com,2013-05-24 22:50:00,
2013-05-24 17:05:00,98.8,43.1,29.86,SSW,202,6.3,-999.0,15,-99.99,,,0.00,Acu-Link.com,2013-05-24 23:05:00,
2013-05-24 17:20:00,102.7,42.4,29.86,South,180,3.7,-999.0,13,-99.99,,,0.00,Acu-Link.com,2013-05-24 23:20:00,
2013-05-24 17:35:00,99.3,41.7,29.85,WNW,292,8.3,-999.0,14,-99.99,,,0.00,Acu-Link.com,2013-05-24 23:35:00,
2013-05-24 17:50:00,99.0,39.5,29.85,SW,225,5.8,-999.0,13,-99.99,,,0.00,Acu-Link.com,2013-05-24 23:50:00,
2013-05-24 18:05:00,97.2,40.0,29.84,WSW,247,4.7,-999.0,14,-99.99,,,0.00,Acu-Link.com,2013-05-25 00:05:00,
2013-05-24 18:21:00,99.1,39.6,29.84,West,270,3.7,-999.0,13,-99.99,,,0.00,Acu-Link.com,2013-05-25 00:21:00,
2013-05-24 18:36:00,97.2,38.1,29.83,ENE,67,1.7,-999.0,13,-99.99,,,0.00,Acu-Link.com,2013-05-25 00:36:00,
2013-05-24 18:51:00,95.2,38.5,29.84,SSW,202,4.2,-999.0,14,-99.99,,,0.00,Acu-Link.com,2013-05-25 00:51:00,
2013-05-24 19:06:00,93.4,38.8,29.84,West,270,3.2,-999.0,15,-99.99,,,0.00,Acu-Link.com,2013-05-25 01:06:00,
2013-05-24 19:21:00,91.6,37.4,29.85,West,270,1.1,-999.0,15,-99.99,,,0.00,Acu-Link.com,2013-05-25 01:21:00,
2013-05-24 19:36:00,90.0,37.8,29.84,ESE,112,2.2,-999.0,16,-99.99,,,0.00,Acu-Link.com,2013-05-25 01:36:00,
2013-05-24 19:52:00,88.3,36.4,29.86,WSW,247,2.2,-999.0,16,-99.99,,,0.00,Acu-Link.com,2013-05-25 01:52:00,
2013-05-24 20:07:00,86.4,36.4,29.87,SE,135,2.2,-999.0,17,-99.99,,,0.00,Acu-Link.com,2013-05-25 02:07:00,
2013-05-24 20:22:00,85.5,45.6,29.88,SSE,157,3.2,-999.0,25,-99.99,,,0.00,Acu-Link.com,2013-05-25 02:22:00,
2013-05-24 20:37:00,86.5,47.5,29.89,SE,135,10.9,-999.0,26,-99.99,,,0.00,Acu-Link.com,2013-05-25 02:37:00,
2013-05-24 20:52:00,85.3,44.4,29.89,SE,135,12.5,-999.0,24,-99.99,,,0.00,Acu-Link.com,2013-05-25 02:52:00,
2013-05-24 21:07:00,84.7,43.9,29.89,SSE,157,7.3,-999.0,24,-99.99,,,0.00,Acu-Link.com,2013-05-25 03:07:00,
2013-05-24 21:22:00,84.2,42.4,29.89,SE,135,5.8,-999.0,23,-99.99,,,0.00,Acu-Link.com,2013-05-25 03:22:00,
2013-05-24 21:37:00,84.2,41.2,29.90,East,90,6.3,-999.0,22,-99.99,,,0.00,Acu-Link.com,2013-05-25 03:37:00,
2013-05-24 21:52:00,83.3,40.5,29.90,ESE,112,4.7,-999.0,22,-99.99,,,0.00,Acu-Link.com,2013-05-25 03:52:00,
2013-05-24 22:08:00,82.8,42.3,29.90,SSE,157,4.2,-999.0,24,-99.99,,,0.00,Acu-Link.com,2013-05-25 04:08:00,
2013-05-24 22:23:00,81.9,40.4,29.90,ESE,112,4.7,-999.0,23,-99.99,,,0.00,Acu-Link.com,2013-05-25 04:23:00,
2013-05-24 22:38:00,81.3,39.9,29.91,ESE,112,3.7,-999.0,23,-99.99,,,0.00,Acu-Link.com,2013-05-25 04:38:00,
2013-05-24 22:53:00,81.0,40.8,29.90,SE,135,2.2,-999.0,24,-99.99,,,0.00,Acu-Link.com,2013-05-25 04:53:00,
2013-05-24 23:08:00,80.6,40.5,29.91,SSE,157,5.8,-999.0,24,-99.99,,,0.00,Acu-Link.com,2013-05-25 05:08:00,
2013-05-24 23:23:00,80.2,41.2,29.91,SE,135,3.2,-999.0,25,-99.99,,,0.00,Acu-Link.com,2013-05-25 05:23:00,
2013-05-24 23:38:00,79.5,42.6,29.91,SSE,157,5.3,-999.0,27,-99.99,,,0.00,Acu-Link.com,2013-05-25 05:38:00,
2013-05-24 23:53:00,78.8,42.0,29.92,WSW,247,0.0,-999.0,27,-99.99,,,0.00,Acu-Link.com,2013-05-25 05:53:00,